createdAt,value
2019-06-15T00:01:32.108Z,2.00
2019-06-15T00:04:02.190Z,1.90
2019-06-15T00:06:31.336Z,1.60
2019-06-15T00:09:00.413Z,2.17
2019-06-15T00:11:29.487Z,2.43
2019-06-15T00:13:58.897Z,2.47
2019-06-15T00:16:28.004Z,1.67
2019-06-15T00:18:57.128Z,2.30
2019-06-15T00:21:26.794Z,2.00
2019-06-15T00:23:55.877Z,2.10
2019-06-15T00:26:25.198Z,2.20
2019-06-15T00:28:54.892Z,1.90
2019-06-15T00:31:24.693Z,1.60
2019-06-15T00:33:54.441Z,2.00
2019-06-15T00:36:23.519Z,1.80
2019-06-15T00:38:52.628Z,1.97
2019-06-15T00:41:22.071Z,2.20
2019-06-15T00:43:51.136Z,2.07
2019-06-15T00:46:20.816Z,1.70
2019-06-15T00:48:49.879Z,2.13
2019-06-15T00:51:18.944Z,1.90
2019-06-15T00:53:48.042Z,2.30
2019-06-15T00:56:17.705Z,2.00
2019-06-15T00:58:46.827Z,1.80
2019-06-15T01:01:16.690Z,2.00
2019-06-15T01:03:46.069Z,2.10
2019-06-15T01:06:15.198Z,1.90
2019-06-15T01:08:44.277Z,1.80
2019-06-15T01:11:13.633Z,2.23
2019-06-15T01:13:42.661Z,1.83
2019-06-15T01:16:11.704Z,2.03
2019-06-15T01:18:40.929Z,1.63
2019-06-15T01:21:10.304Z,1.90
2019-06-15T01:23:39.649Z,2.10
2019-06-15T01:26:08.689Z,2.30
2019-06-15T01:28:38.048Z,3.43
2019-06-15T01:31:07.079Z,1.80
2019-06-15T01:33:36.116Z,2.27
2019-06-15T01:36:05.152Z,1.70
2019-06-15T01:38:34.264Z,2.27
2019-06-15T01:41:03.332Z,2.30
2019-06-15T01:43:32.676Z,1.80
2019-06-15T01:46:01.988Z,1.50
2019-06-15T01:48:31.152Z,1.87
2019-06-15T01:51:00.528Z,2.10
2019-06-15T01:53:29.468Z,2.10
2019-06-15T01:55:58.850Z,1.93
2019-06-15T01:58:27.895Z,1.50
2019-06-15T02:00:56.941Z,1.87
2019-06-15T02:03:26.398Z,2.10
2019-06-15T02:05:55.765Z,1.70
2019-06-15T02:08:25.155Z,2.47
2019-06-15T02:10:54.197Z,2.43
2019-06-15T02:13:23.600Z,1.90
2019-06-15T02:15:53.297Z,2.00
2019-06-15T02:18:22.346Z,1.97
2019-06-15T02:20:51.647Z,1.40
2019-06-15T02:23:20.966Z,1.93
2019-06-15T02:25:50.293Z,2.33
2019-06-15T02:35:44.874Z,2.75
2019-06-15T02:38:13.922Z,2.42
2019-06-15T02:40:42.974Z,2.40
2019-06-15T02:43:11.941Z,2.60
2019-06-15T02:45:41.321Z,2.40
2019-06-15T02:48:10.430Z,2.60
2019-06-15T02:50:39.448Z,2.30
2019-06-15T02:53:09.277Z,2.85
2019-06-15T02:55:49.835Z,2.50
2019-06-15T02:58:09.160Z,2.40
2019-06-15T03:01:10.149Z,2.98
2019-06-15T03:03:39.125Z,2.90
2019-06-15T03:06:08.152Z,2.50
2019-06-15T03:08:37.588Z,2.37
2019-06-15T03:11:06.656Z,2.67
2019-06-15T03:13:36.642Z,2.60
2019-06-15T03:16:07.173Z,2.80
2019-06-15T03:18:36.556Z,2.30
2019-06-15T03:21:05.589Z,2.80
2019-06-15T03:23:34.664Z,2.65
2019-06-15T03:26:05.894Z,2.42
2019-06-15T03:28:35.092Z,2.08
2019-06-15T03:31:04.095Z,2.98
2019-06-15T03:33:33.442Z,2.58
2019-06-15T03:36:02.492Z,2.47
2019-06-15T03:38:31.556Z,2.80
2019-06-15T03:41:00.545Z,2.55
2019-06-15T03:43:29.886Z,2.30
2019-06-15T03:45:59.191Z,2.80
2019-06-15T03:48:28.193Z,2.10
2019-06-15T03:50:57.605Z,2.50
2019-06-15T03:53:26.836Z,2.25
2019-06-15T03:55:55.855Z,2.70
2019-06-15T03:58:24.916Z,2.30
2019-06-15T04:01:04.813Z,2.40
2019-06-15T04:03:34.057Z,2.50
2019-06-15T04:06:03.293Z,2.60
2019-06-15T04:08:32.596Z,3.37
2019-06-15T04:11:01.909Z,3.30
2019-06-15T04:13:30.864Z,4.15
2019-06-15T04:15:59.908Z,3.40
2019-06-15T04:18:28.873Z,3.55
2019-06-15T04:20:58.174Z,2.90
2019-06-15T04:23:27.125Z,2.17
2019-06-15T04:25:56.164Z,2.80
2019-06-15T04:28:25.571Z,1.80
2019-06-15T04:30:54.528Z,2.57
2019-06-15T04:33:23.644Z,2.77
2019-06-15T04:35:52.992Z,1.90
2019-06-15T04:38:21.940Z,2.37
2019-06-15T04:40:50.976Z,2.90
2019-06-15T04:43:20.348Z,3.10
2019-06-15T04:45:49.651Z,2.73
2019-06-15T04:48:18.689Z,2.20
2019-06-15T04:50:48.108Z,2.30
2019-06-15T04:53:17.133Z,3.00
2019-06-15T04:55:46.196Z,2.80
2019-06-15T04:58:15.529Z,2.10
2019-06-15T05:00:44.557Z,2.43
2019-06-15T05:03:13.841Z,2.60
2019-06-15T05:05:42.832Z,2.57
2019-06-15T05:08:11.868Z,2.40
2019-06-15T05:10:40.956Z,1.70
2019-06-15T05:13:09.976Z,2.33
2019-06-15T05:15:39.018Z,2.40
2019-06-15T05:18:08.035Z,2.27
2019-06-15T05:20:37.147Z,2.03
2019-06-15T05:23:06.181Z,1.97
2019-06-15T05:25:35.368Z,1.83
2019-06-15T05:28:04.651Z,1.97
2019-06-15T05:30:33.726Z,1.60
2019-06-15T05:33:02.741Z,2.13
2019-06-15T05:35:32.457Z,1.80
2019-06-15T05:38:01.852Z,1.60
2019-06-15T05:40:31.215Z,1.27
2019-06-15T05:43:00.284Z,1.00
2019-06-15T05:45:29.324Z,1.75
2019-06-15T05:47:58.747Z,1.30
2019-06-15T05:50:28.146Z,1.50
2019-06-15T05:52:57.019Z,1.43
2019-06-15T05:55:26.296Z,1.10
2019-06-15T05:57:55.668Z,1.30
2019-06-15T06:00:26.416Z,1.10
2019-06-15T06:02:56.081Z,0.90
2019-06-15T06:05:25.424Z,1.10
2019-06-15T06:07:54.479Z,1.37
2019-06-15T06:10:23.509Z,1.53
2019-06-15T06:12:52.864Z,1.33
2019-06-15T06:15:22.472Z,1.60
2019-06-15T06:17:51.855Z,1.27
2019-06-15T06:20:20.883Z,1.77
2019-06-15T06:22:50.633Z,1.03
2019-06-15T06:25:20.064Z,0.93
2019-06-15T06:27:49.396Z,1.00
2019-06-15T06:30:19.544Z,0.73
2019-06-15T06:32:48.500Z,0.90
2019-06-15T06:35:17.920Z,1.40
2019-06-15T06:37:47.048Z,1.00
2019-06-15T06:40:17.871Z,0.90
2019-06-15T06:42:47.552Z,1.10
2019-06-15T06:45:18.069Z,0.90
2019-06-15T06:47:47.116Z,1.07
2019-06-15T06:50:17.046Z,0.77
2019-06-15T06:52:46.373Z,1.53
2019-06-15T06:55:16.000Z,1.47
2019-06-15T06:57:52.590Z,1.60
2019-06-15T07:00:16.150Z,1.90
2019-06-15T07:02:45.417Z,1.20
2019-06-15T07:05:14.448Z,1.70
2019-06-15T07:07:43.437Z,1.33
2019-06-15T07:10:13.314Z,1.10
2019-06-15T07:12:42.356Z,1.13
2019-06-15T07:15:11.596Z,1.10
2019-06-15T07:17:40.918Z,0.90
2019-06-15T07:20:11.231Z,1.40
2019-06-15T07:22:40.528Z,0.80
2019-06-15T07:25:10.132Z,1.40
2019-06-15T07:27:39.204Z,0.80
2019-06-15T07:30:11.057Z,1.10
2019-06-15T07:32:40.116Z,1.57
2019-06-15T07:35:10.100Z,1.43
2019-06-15T07:37:39.072Z,1.53
2019-06-15T07:40:08.413Z,0.97
2019-06-15T07:42:39.411Z,1.63
2019-06-15T07:45:09.592Z,1.00
2019-06-15T07:47:38.993Z,1.37
2019-06-15T07:50:09.471Z,1.13
2019-06-15T07:52:38.420Z,1.23
2019-06-15T07:55:07.483Z,1.10
2019-06-15T07:57:36.908Z,1.00
2019-06-15T08:00:06.905Z,0.90
2019-06-15T08:02:35.919Z,1.40
2019-06-15T08:05:06.248Z,1.50
2019-06-15T08:07:36.313Z,1.20
2019-06-15T08:10:06.653Z,1.30
2019-06-15T08:12:36.060Z,1.00
2019-06-15T08:15:05.941Z,1.10
2019-06-15T08:17:34.971Z,1.10
2019-06-15T08:20:08.206Z,1.50
2019-06-15T08:22:37.459Z,1.70
2019-06-15T08:25:06.844Z,1.40
2019-06-15T08:27:35.912Z,1.13
2019-06-15T08:30:05.573Z,1.63
2019-06-15T08:32:34.591Z,1.60
2019-06-15T08:35:03.695Z,1.60
2019-06-15T08:37:33.449Z,1.20
2019-06-15T08:40:02.416Z,1.50
2019-06-15T08:42:31.456Z,1.00
2019-06-15T08:45:00.424Z,1.33
2019-06-15T08:47:29.767Z,1.40
2019-06-15T08:49:58.736Z,1.30
2019-06-15T08:52:28.055Z,1.22
2019-06-15T08:54:57.313Z,1.10
2019-06-15T08:57:26.349Z,1.30
2019-06-15T08:59:55.614Z,1.30
2019-06-15T09:02:24.890Z,1.40
2019-06-15T09:04:53.853Z,1.10
2019-06-15T09:07:22.910Z,1.10
2019-06-15T09:09:52.521Z,1.17
2019-06-15T09:12:24.839Z,1.40
2019-06-15T09:14:52.747Z,1.00
2019-06-15T09:17:21.733Z,1.10
2019-06-15T09:19:51.037Z,1.20
2019-06-15T09:22:20.637Z,1.20
2019-06-15T09:24:50.251Z,1.00
2019-06-15T09:27:19.238Z,0.85
2019-06-15T09:29:48.901Z,1.10
2019-06-15T09:32:18.245Z,0.80
2019-06-15T09:34:47.591Z,1.00
2019-06-15T09:37:17.009Z,1.00
2019-06-15T09:39:46.280Z,1.02
2019-06-15T09:42:15.302Z,0.80
2019-06-15T09:44:44.268Z,0.90
2019-06-15T09:47:13.247Z,1.02
2019-06-15T09:49:42.296Z,1.10
2019-06-15T09:52:11.327Z,0.80
2019-06-15T09:54:40.639Z,1.00
2019-06-15T09:57:09.673Z,0.98
2019-06-15T09:59:38.675Z,0.80
2019-06-15T10:02:08.312Z,0.95
2019-06-15T10:04:37.359Z,1.00
2019-06-15T10:07:06.750Z,0.90
2019-06-15T10:09:36.150Z,0.80
2019-06-15T10:12:05.208Z,0.90
2019-06-15T10:14:34.240Z,0.80
2019-06-15T10:17:03.493Z,0.90
2019-06-15T10:19:32.432Z,1.20
2019-06-15T10:22:01.450Z,0.90
2019-06-15T10:24:30.325Z,0.73
2019-06-15T10:26:59.428Z,1.00
2019-06-15T10:29:41.261Z,0.90
2019-06-15T10:31:59.064Z,1.13
2019-06-15T10:34:28.393Z,1.00
2019-06-15T10:36:57.433Z,1.10
2019-06-15T10:39:26.461Z,1.50
2019-06-15T10:41:55.773Z,0.90
2019-06-15T10:44:25.072Z,0.90
2019-06-15T10:46:54.425Z,0.87
2019-06-15T10:49:23.451Z,0.93
2019-06-15T10:51:52.762Z,1.00
2019-06-15T10:54:21.729Z,0.80
2019-06-15T10:56:51.069Z,0.90
2019-06-15T10:59:20.343Z,0.80
2019-06-15T11:01:49.653Z,0.83
2019-06-15T11:04:18.997Z,1.00
2019-06-15T11:06:48.587Z,0.77
2019-06-15T11:09:17.618Z,0.80
2019-06-15T11:11:46.676Z,1.10
2019-06-15T11:14:15.705Z,0.90
2019-06-15T11:16:45.040Z,0.90
2019-06-15T11:19:14.099Z,1.50
2019-06-15T11:21:43.501Z,0.97
2019-06-15T11:24:12.676Z,0.83
2019-06-15T11:26:42.142Z,1.00
2019-06-15T11:29:11.653Z,1.20
2019-06-15T11:31:41.052Z,0.90
2019-06-15T11:34:10.108Z,0.80
2019-06-15T11:36:39.472Z,1.20
2019-06-15T11:39:08.927Z,1.10
2019-06-15T11:41:37.983Z,1.10
2019-06-15T11:44:07.061Z,1.03
2019-06-15T11:46:36.438Z,1.07
2019-06-15T11:49:05.491Z,1.00
2019-06-15T11:51:34.525Z,1.00
2019-06-15T11:54:04.144Z,1.00
2019-06-15T11:56:33.484Z,1.20
2019-06-15T11:59:02.855Z,0.80
2019-06-15T12:01:31.900Z,1.00
2019-06-15T12:04:01.429Z,0.80
2019-06-15T12:06:31.144Z,1.00
2019-06-15T12:09:00.520Z,0.80
2019-06-15T12:11:29.951Z,1.10
2019-06-15T12:13:59.020Z,1.30
2019-06-15T12:16:27.988Z,0.70
2019-06-15T12:18:57.036Z,0.80
2019-06-15T12:21:26.357Z,0.90
2019-06-15T12:23:55.733Z,0.80
2019-06-15T12:26:24.748Z,1.17
2019-06-15T12:28:53.813Z,1.00
2019-06-15T12:31:22.858Z,0.80
2019-06-15T12:33:51.896Z,0.90
2019-06-15T12:36:20.925Z,1.00
2019-06-15T12:38:50.236Z,0.80
2019-06-15T12:41:19.254Z,0.83
2019-06-15T12:43:48.601Z,0.90
2019-06-15T12:46:17.889Z,1.07
2019-06-15T12:48:47.308Z,0.83
2019-06-15T12:51:16.720Z,0.90
2019-06-15T12:53:45.690Z,0.90
2019-06-15T12:56:14.790Z,0.97
2019-06-15T12:58:43.846Z,0.90
2019-06-15T13:01:13.187Z,0.70
2019-06-15T13:03:42.472Z,0.70
2019-06-15T13:06:11.500Z,0.90
2019-06-15T13:08:41.176Z,0.90
2019-06-15T13:11:10.785Z,1.20
2019-06-15T13:13:39.823Z,0.90
2019-06-15T13:16:08.881Z,0.80
2019-06-15T13:18:37.929Z,0.90
2019-06-15T13:21:07.029Z,0.80
2019-06-15T13:23:36.160Z,1.73
2019-06-15T13:26:05.463Z,1.20
2019-06-15T13:28:34.753Z,1.00
2019-06-15T13:31:17.405Z,0.77
2019-06-15T13:33:34.784Z,0.83
2019-06-15T13:36:03.817Z,1.37
2019-06-15T13:38:32.804Z,0.90
2019-06-15T13:41:01.750Z,1.03
2019-06-15T13:43:30.961Z,0.80
2019-06-15T13:45:59.849Z,1.00
2019-06-15T13:48:29.100Z,1.40
2019-06-15T13:50:57.997Z,0.80
2019-06-15T13:53:26.883Z,0.70
2019-06-15T13:55:55.764Z,0.70
2019-06-15T13:58:25.047Z,0.80
2019-06-15T14:00:54.097Z,1.43
2019-06-15T14:03:23.052Z,0.90
2019-06-15T14:05:52.308Z,1.13
2019-06-15T14:08:21.657Z,0.70
2019-06-15T14:10:50.688Z,0.77
2019-06-15T14:13:20.018Z,0.70
2019-06-15T14:15:48.907Z,1.30
2019-06-15T14:18:18.142Z,0.70
2019-06-15T14:20:47.532Z,1.10
2019-06-15T14:23:16.847Z,0.70
2019-06-15T14:25:46.502Z,0.80
2019-06-15T14:28:15.527Z,0.70
2019-06-15T14:30:44.598Z,0.70
2019-06-15T14:33:13.616Z,0.70
2019-06-15T14:35:44.121Z,0.73
2019-06-15T14:38:13.482Z,0.80
2019-06-15T14:40:42.805Z,0.90
2019-06-15T14:43:12.006Z,0.80
2019-06-15T14:45:41.124Z,1.00
2019-06-15T14:48:10.396Z,0.80
2019-06-15T14:50:39.683Z,1.00
2019-06-15T14:53:08.993Z,0.80
2019-06-15T14:55:38.689Z,0.77
2019-06-15T14:58:08.025Z,0.90
2019-06-15T15:00:37.348Z,1.00
2019-06-15T15:03:06.897Z,0.70
2019-06-15T15:05:36.549Z,1.23
2019-06-15T15:08:06.868Z,0.80
2019-06-15T15:10:36.975Z,1.20
2019-06-15T15:13:06.698Z,0.70
2019-06-15T15:15:36.437Z,0.70
2019-06-15T15:18:06.999Z,0.87
2019-06-15T15:20:36.492Z,1.13
2019-06-15T15:23:06.320Z,0.80
2019-06-15T15:25:36.972Z,1.00
2019-06-15T15:28:07.390Z,0.70
2019-06-15T15:30:39.870Z,0.90
2019-06-15T15:33:09.266Z,0.80
2019-06-15T15:35:38.311Z,0.80
2019-06-15T15:38:07.333Z,0.80
2019-06-15T15:40:36.727Z,0.70
2019-06-15T15:43:06.903Z,0.70
2019-06-15T15:45:37.323Z,0.90
2019-06-15T15:50:37.023Z,1.00
2019-06-15T15:53:06.488Z,0.87
2019-06-15T15:55:35.832Z,0.80
2019-06-15T15:58:06.778Z,1.20
2019-06-15T16:00:36.635Z,0.80
2019-06-15T16:03:07.018Z,0.73
2019-06-15T16:05:37.046Z,0.83
2019-06-15T16:08:06.766Z,0.90
2019-06-15T16:10:37.478Z,0.97
2019-06-15T16:13:07.062Z,0.67
2019-06-15T16:15:37.192Z,0.80
2019-06-15T16:18:07.029Z,0.80
2019-06-15T16:20:37.054Z,0.73
2019-06-15T16:23:07.559Z,0.73
2019-06-15T16:25:37.367Z,1.00
2019-06-15T16:28:07.195Z,0.87
2019-06-15T16:31:00.443Z,1.40
2019-06-15T16:33:07.941Z,0.90
2019-06-15T16:35:37.189Z,1.00
2019-06-15T16:38:07.140Z,0.90
2019-06-15T16:40:39.563Z,1.10
2019-06-15T16:43:09.001Z,0.90
2019-06-15T16:45:38.044Z,0.73
2019-06-15T16:48:07.201Z,0.93
2019-06-15T16:50:36.806Z,0.90
2019-06-15T16:53:06.141Z,1.10
2019-06-15T16:55:36.833Z,0.90
2019-06-15T16:58:07.566Z,0.83
2019-06-15T17:00:36.793Z,1.50
2019-06-15T17:03:20.278Z,0.93
2019-06-15T17:05:36.976Z,0.90
2019-06-15T17:08:07.093Z,1.10
2019-06-15T17:10:40.445Z,0.77
2019-06-15T17:13:10.321Z,0.70
2019-06-15T17:15:39.456Z,0.90
2019-06-15T17:18:08.804Z,1.00
2019-06-15T17:20:50.935Z,1.00
2019-06-15T17:23:20.323Z,1.10
2019-06-15T17:25:50.457Z,0.90
2019-06-15T17:28:20.272Z,0.97
2019-06-15T17:30:49.286Z,0.90
2019-06-15T17:33:33.450Z,0.83
2019-06-15T17:35:58.738Z,0.80
2019-06-15T17:38:20.024Z,0.73
2019-06-15T17:40:49.321Z,0.90
2019-06-15T17:43:18.352Z,1.07
2019-06-15T17:45:47.372Z,0.90
2019-06-15T17:48:17.320Z,0.80
2019-06-15T17:50:47.694Z,0.80
2019-06-15T17:53:17.572Z,1.00
2019-06-15T17:55:46.956Z,1.03
2019-06-15T17:58:16.940Z,0.93
2019-06-15T18:00:47.267Z,0.87
2019-06-15T18:03:17.395Z,1.00
2019-06-15T18:05:47.956Z,1.00
2019-06-15T18:08:18.078Z,0.90
2019-06-15T18:10:47.967Z,1.10
2019-06-15T18:13:17.493Z,0.70
2019-06-15T18:15:47.572Z,0.83
2019-06-15T18:18:17.424Z,1.20
2019-06-15T18:20:46.820Z,1.10
2019-06-15T18:23:17.299Z,0.97
2019-06-15T18:25:47.057Z,0.93
2019-06-15T18:28:17.472Z,0.90
2019-06-15T18:30:47.515Z,1.20
2019-06-15T18:33:16.656Z,0.77
2019-06-15T18:35:47.523Z,0.80
2019-06-15T18:38:16.499Z,0.80
2019-06-15T18:40:45.862Z,0.80
2019-06-15T18:53:13.862Z,0.80
2019-06-15T18:55:42.831Z,1.30
2019-06-15T18:58:11.867Z,1.00
2019-06-15T19:00:41.261Z,0.80
2019-06-15T19:03:10.307Z,0.97
2019-06-15T19:05:39.501Z,0.97
2019-06-15T19:08:08.540Z,1.00
2019-06-15T19:10:37.877Z,0.93
2019-06-15T19:13:07.851Z,0.67
2019-06-15T19:15:37.680Z,1.10
2019-06-15T19:18:07.658Z,0.93
2019-06-15T19:20:37.525Z,0.90
2019-06-15T19:23:07.166Z,0.60
2019-06-15T19:25:36.815Z,0.80
2019-06-15T19:28:06.208Z,0.80
2019-06-15T19:30:37.420Z,0.90
2019-06-15T19:33:06.344Z,0.87
2019-06-15T19:35:36.541Z,0.90
2019-06-15T19:38:06.347Z,1.10
2019-06-15T19:40:37.787Z,0.80
2019-06-15T19:43:06.796Z,0.60
2019-06-15T19:45:37.100Z,0.90
2019-06-15T19:48:06.790Z,0.77
2019-06-15T19:50:36.444Z,0.80
2019-06-15T19:53:06.950Z,1.00
2019-06-15T19:55:36.461Z,0.90
2019-06-15T19:58:07.272Z,1.10
2019-06-15T20:00:37.169Z,0.70
2019-06-15T20:03:07.022Z,0.90
2019-06-15T20:05:37.260Z,0.83
2019-06-15T20:08:07.116Z,0.90
2019-06-15T20:10:37.276Z,0.70
2019-06-15T20:13:07.197Z,1.00
2019-06-15T20:15:37.683Z,0.73
2019-06-15T20:18:07.477Z,0.83
2019-06-15T20:20:38.569Z,0.80
2019-06-15T20:23:07.805Z,0.90
2019-06-15T20:25:37.504Z,0.80
2019-06-15T20:28:07.274Z,0.90
2019-06-15T20:30:37.196Z,0.63
2019-06-15T20:33:07.763Z,0.80
2019-06-15T20:35:37.573Z,0.93
2019-06-15T20:38:06.599Z,0.87
2019-06-15T20:40:36.585Z,1.17
2019-06-15T20:43:07.595Z,1.63
2019-06-15T20:45:37.252Z,1.27
2019-06-15T20:48:06.973Z,0.83
2019-06-15T20:50:36.403Z,1.70
2019-06-15T20:53:06.113Z,1.22
2019-06-15T20:55:37.248Z,1.15
2019-06-15T20:58:06.699Z,1.77
2019-06-15T21:00:36.797Z,1.50
2019-06-15T21:03:06.930Z,1.33
2019-06-15T21:05:41.630Z,1.40
2019-06-15T21:08:07.165Z,1.37
2019-06-15T21:10:37.359Z,1.20
2019-06-15T21:13:06.904Z,1.30
2019-06-15T21:15:39.237Z,1.40
2019-06-15T21:18:08.677Z,1.20
2019-06-15T21:20:38.038Z,1.17
2019-06-15T21:23:07.099Z,1.32
2019-06-15T21:25:36.139Z,1.32
2019-06-15T21:28:06.741Z,1.40
2019-06-15T21:30:36.971Z,1.40
2019-06-15T21:33:07.024Z,1.10
2019-06-15T21:35:48.193Z,1.30
2019-06-15T21:38:07.153Z,1.45
2019-06-15T21:40:36.965Z,1.30
2019-06-15T21:43:07.000Z,1.42
2019-06-15T21:45:37.023Z,1.50
2019-06-15T21:48:06.946Z,1.42
2019-06-15T21:50:36.653Z,1.00
2019-06-15T21:53:06.982Z,1.70
2019-06-15T21:55:36.358Z,1.30
2019-06-15T21:58:07.609Z,1.40
2019-06-15T22:00:50.737Z,1.40
2019-06-15T22:03:20.140Z,1.37
2019-06-15T22:06:02.207Z,1.80
2019-06-15T22:08:20.377Z,1.87
2019-06-15T22:10:49.777Z,1.70
2019-06-15T22:13:18.705Z,1.83
2019-06-15T22:15:47.749Z,1.60
2019-06-15T22:18:17.055Z,2.00
2019-06-15T22:20:46.992Z,1.63
2019-06-15T22:23:16.574Z,1.70
2019-06-15T22:25:46.385Z,1.37
2019-06-15T22:28:16.482Z,1.90
2019-06-15T22:30:46.251Z,1.80
2019-06-15T22:33:16.561Z,1.75
2019-06-15T22:35:47.514Z,1.50
2019-06-15T22:38:16.472Z,1.45
2019-06-15T22:40:47.053Z,1.10
2019-06-15T22:43:16.814Z,1.45
2019-06-15T22:45:49.756Z,1.20
2019-06-15T22:48:17.460Z,1.47
2019-06-15T22:50:46.950Z,1.30
2019-06-15T22:53:16.623Z,1.60
2019-06-15T22:55:46.389Z,1.45
2019-06-15T22:58:17.890Z,0.97
2019-06-15T23:00:47.135Z,1.37
2019-06-15T23:03:16.947Z,1.80
2019-06-15T23:05:46.403Z,1.40
2019-06-15T23:08:16.338Z,1.62
2019-06-15T23:10:46.875Z,1.80
2019-06-15T23:13:16.409Z,1.70
2019-06-15T23:15:47.042Z,1.80
2019-06-15T23:18:17.220Z,1.70
2019-06-15T23:20:46.816Z,1.70
2019-06-15T23:23:16.129Z,1.70
2019-06-15T23:25:47.214Z,1.80
2019-06-15T23:28:16.751Z,1.40
2019-06-15T23:30:47.298Z,1.40
2019-06-15T23:33:17.252Z,1.45
2019-06-15T23:35:52.283Z,1.30
2019-06-15T23:38:21.324Z,1.50
2019-06-15T23:40:50.358Z,1.53
2019-06-15T23:43:19.748Z,1.30
2019-06-15T23:45:48.776Z,1.70
2019-06-15T23:48:18.059Z,1.60
2019-06-15T23:50:47.677Z,1.50
2019-06-15T23:53:17.026Z,1.37
2019-06-15T23:55:47.191Z,1.20
2019-06-15T23:58:17.619Z,1.30
